createdAt,value
2023-04-09T00:01:54.112Z,3.31
2023-04-09T00:04:20.542Z,3.24
2023-04-09T00:06:46.985Z,3.17
2023-04-09T00:09:13.387Z,3.63
2023-04-09T00:11:39.778Z,5.93
2023-04-09T00:14:06.150Z,5.43
2023-04-09T00:16:32.618Z,6.85
2023-04-09T00:18:59.127Z,7.62
2023-04-09T00:21:25.545Z,6.99
2023-04-09T00:23:52.004Z,4.26
2023-04-09T00:26:18.444Z,5.17
2023-04-09T00:28:45.210Z,5.19
2023-04-09T00:31:12.900Z,5.38
2023-04-09T00:33:39.384Z,5.23
2023-04-09T00:36:05.908Z,6.33
2023-04-09T00:38:32.423Z,5.22
2023-04-09T00:40:58.847Z,4.80
2023-04-09T00:43:25.278Z,4.21
2023-04-09T00:45:51.787Z,4.57
2023-04-09T00:48:18.201Z,4.43
2023-04-09T00:50:44.646Z,5.12
2023-04-09T00:53:11.124Z,8.71
2023-04-09T00:55:37.591Z,6.42
2023-04-09T00:58:12.766Z,4.71
2023-04-09T01:00:39.244Z,4.13
2023-04-09T01:03:05.743Z,4.89
2023-04-09T01:05:32.184Z,5.87
2023-04-09T01:07:58.569Z,9.63
2023-04-09T01:10:24.977Z,7.88
2023-04-09T01:12:51.414Z,5.81
2023-04-09T01:15:17.888Z,5.71
2023-04-09T01:17:44.472Z,5.09
2023-04-09T01:20:19.930Z,4.08
2023-04-09T01:22:46.386Z,3.70
2023-04-09T01:25:12.828Z,3.34
2023-04-09T01:27:39.309Z,3.46
2023-04-09T01:30:05.772Z,3.47
2023-04-09T01:32:32.338Z,3.61
2023-04-09T01:34:58.824Z,3.99
2023-04-09T01:37:30.674Z,4.52
2023-04-09T01:39:57.259Z,4.44
2023-04-09T01:42:23.732Z,4.15
2023-04-09T01:44:50.114Z,3.77
2023-04-09T01:47:16.534Z,3.94
2023-04-09T01:49:42.997Z,4.16
2023-04-09T01:52:09.419Z,4.04
2023-04-09T01:54:35.825Z,3.60
2023-04-09T01:57:02.252Z,3.47
2023-04-09T01:59:28.726Z,3.81
2023-04-09T02:01:55.294Z,3.96
2023-04-09T02:04:21.909Z,4.11
2023-04-09T02:06:48.368Z,5.08
2023-04-09T02:09:14.738Z,6.39
2023-04-09T02:11:41.080Z,4.09
2023-04-09T02:14:07.462Z,3.45
2023-04-09T02:16:33.910Z,3.21
2023-04-09T02:19:00.395Z,3.40
2023-04-09T02:21:26.744Z,3.33
2023-04-09T02:23:53.183Z,3.03
2023-04-09T02:26:19.644Z,2.60
2023-04-09T02:28:46.124Z,3.06
2023-04-09T02:31:12.622Z,2.72
2023-04-09T02:33:39.090Z,3.32
2023-04-09T02:36:05.507Z,4.12
2023-04-09T02:38:31.987Z,4.30
2023-04-09T02:40:58.457Z,5.76
2023-04-09T02:43:24.835Z,7.33
2023-04-09T02:45:51.187Z,4.20
2023-04-09T02:48:17.583Z,3.20
2023-04-09T02:50:44.072Z,3.32
2023-04-09T02:55:50.874Z,3.44
2023-04-09T02:58:17.275Z,3.18
2023-04-09T03:00:43.851Z,3.39
2023-04-09T03:03:10.700Z,3.76
2023-04-09T03:05:37.248Z,4.28
2023-04-09T03:08:03.585Z,4.10
2023-04-09T03:10:29.928Z,3.83
2023-04-09T03:12:56.413Z,4.00
2023-04-09T03:15:22.835Z,3.88
2023-04-09T03:17:49.221Z,4.34
2023-04-09T03:20:15.581Z,4.11
2023-04-09T03:22:42.029Z,4.45
2023-04-09T03:25:08.412Z,4.32
2023-04-09T03:27:34.773Z,4.08
2023-04-09T03:30:01.113Z,4.18
2023-04-09T03:32:27.623Z,4.62
2023-04-09T03:34:54.050Z,4.58
2023-04-09T03:37:20.393Z,4.33
2023-04-09T03:42:30.447Z,3.48
2023-04-09T03:44:56.905Z,3.62
2023-04-09T03:47:23.374Z,3.83
2023-04-09T03:49:49.877Z,3.81
2023-04-09T03:52:16.349Z,3.66
2023-04-09T03:54:42.799Z,4.05
2023-04-09T03:57:09.241Z,4.20
2023-04-09T03:59:35.662Z,4.23
2023-04-09T04:02:02.181Z,4.19
2023-04-09T04:04:28.643Z,4.08
2023-04-09T04:06:55.073Z,4.00
2023-04-09T04:09:21.462Z,4.32
2023-04-09T04:11:47.887Z,3.65
2023-04-09T04:14:14.302Z,3.62
2023-04-09T04:16:40.784Z,3.81
2023-04-09T04:19:07.311Z,3.84
2023-04-09T04:21:33.743Z,3.49
2023-04-09T04:24:00.144Z,3.24
2023-04-09T04:26:26.600Z,3.56
2023-04-09T04:28:53.356Z,3.15
2023-04-09T04:31:20.104Z,3.19
2023-04-09T04:33:46.569Z,3.46
2023-04-09T04:36:12.976Z,3.48
2023-04-09T04:38:39.440Z,3.68
2023-04-09T04:41:05.898Z,3.81
2023-04-09T04:43:32.352Z,3.42
2023-04-09T04:45:58.858Z,2.99
2023-04-09T04:48:25.402Z,3.10
2023-04-09T04:50:51.779Z,3.72
2023-04-09T04:53:18.292Z,3.62
2023-04-09T04:55:44.805Z,3.39
2023-04-09T04:58:13.009Z,3.40
2023-04-09T05:00:39.428Z,4.06
2023-04-09T05:03:05.930Z,4.40
2023-04-09T05:05:32.389Z,4.06
2023-04-09T05:07:58.871Z,4.37
2023-04-09T05:10:25.401Z,4.23
2023-04-09T05:12:51.902Z,4.30
2023-04-09T05:15:18.429Z,4.08
2023-04-09T05:17:44.918Z,4.40
2023-04-09T05:20:11.292Z,4.37
2023-04-09T05:22:37.772Z,4.78
2023-04-09T05:25:04.299Z,4.72
2023-04-09T05:27:30.771Z,4.19
2023-04-09T05:29:58.549Z,4.32
2023-04-09T05:32:26.875Z,4.11
2023-04-09T05:34:53.329Z,4.56
2023-04-09T05:37:19.775Z,4.60
2023-04-09T05:42:26.607Z,3.96
2023-04-09T05:44:52.981Z,3.82
2023-04-09T05:47:19.384Z,3.81
2023-04-09T05:49:45.850Z,3.62
2023-04-09T05:52:12.237Z,3.30
2023-04-09T05:54:38.693Z,3.56
2023-04-09T05:57:05.074Z,3.94
2023-04-09T05:59:31.508Z,4.26
2023-04-09T06:01:59.490Z,4.24
2023-04-09T06:04:25.946Z,4.95
2023-04-09T06:06:52.339Z,4.91
2023-04-09T06:09:18.680Z,4.52
2023-04-09T06:11:45.123Z,5.84
2023-04-09T06:14:11.455Z,4.02
2023-04-09T06:16:37.775Z,4.16
2023-04-09T06:21:54.219Z,3.02
2023-04-09T06:24:20.682Z,3.38
2023-04-09T06:26:47.242Z,3.29
2023-04-09T06:29:13.670Z,2.90
2023-04-09T06:31:40.207Z,3.13
2023-04-09T06:34:06.715Z,3.09
2023-04-09T06:36:33.090Z,3.60
2023-04-09T06:38:59.514Z,3.26
2023-04-09T06:41:25.907Z,2.92
2023-04-09T06:43:52.578Z,2.89
2023-04-09T06:46:19.332Z,3.06
2023-04-09T06:48:45.858Z,3.45
2023-04-09T06:51:12.355Z,5.11
2023-04-09T06:53:39.068Z,5.45
2023-04-09T06:56:05.548Z,4.23
2023-04-09T06:58:31.967Z,7.40
2023-04-09T07:00:58.383Z,5.02
2023-04-09T07:03:25.055Z,3.48
2023-04-09T07:05:51.844Z,3.12
2023-04-09T07:08:18.312Z,3.98
2023-04-09T07:10:44.670Z,5.32
2023-04-09T07:13:11.102Z,5.71
2023-04-09T07:15:38.774Z,4.44
2023-04-09T07:18:06.027Z,4.50
2023-04-09T07:20:32.468Z,4.05
2023-04-09T07:22:59.213Z,4.46
2023-04-09T07:25:25.691Z,3.20
2023-04-09T07:27:52.153Z,3.24
2023-04-09T07:30:18.628Z,3.93
2023-04-09T07:32:45.104Z,3.21
2023-04-09T07:35:11.867Z,4.02
2023-04-09T07:37:38.356Z,3.64
2023-04-09T07:40:04.983Z,4.96
2023-04-09T07:42:31.440Z,4.38
2023-04-09T07:44:57.819Z,3.72
2023-04-09T07:47:24.402Z,3.24
2023-04-09T07:49:51.136Z,3.17
2023-04-09T07:52:17.621Z,3.69
2023-04-09T07:54:44.094Z,3.74
2023-04-09T07:57:10.598Z,7.53
2023-04-09T07:59:37.040Z,12.01
2023-04-09T08:02:03.713Z,10.70
2023-04-09T08:04:30.362Z,6.47
2023-04-09T08:06:56.841Z,7.25
2023-04-09T08:09:23.608Z,7.13
2023-04-09T08:11:50.091Z,5.84
2023-04-09T08:14:16.645Z,4.84
2023-04-09T08:16:43.107Z,4.76
2023-04-09T08:19:09.587Z,4.99
2023-04-09T08:21:36.028Z,5.04
2023-04-09T08:24:02.391Z,4.80
2023-04-09T08:26:28.812Z,5.11
2023-04-09T08:28:55.563Z,5.17
2023-04-09T08:31:22.143Z,5.37
2023-04-09T08:33:48.669Z,5.42
2023-04-09T08:36:15.185Z,5.75
2023-04-09T08:38:41.707Z,5.63
2023-04-09T08:41:08.148Z,5.68
2023-04-09T08:43:52.676Z,5.69
2023-04-09T08:46:21.160Z,6.12
2023-04-09T08:48:47.688Z,6.23
2023-04-09T08:51:14.081Z,6.47
2023-04-09T08:53:40.512Z,6.77
2023-04-09T08:56:06.906Z,7.16
2023-04-09T08:58:33.430Z,6.83
2023-04-09T09:00:59.868Z,7.19
2023-04-09T09:03:26.328Z,9.73
2023-04-09T09:05:52.745Z,10.25
2023-04-09T09:08:19.124Z,10.61
2023-04-09T09:10:45.535Z,10.94
2023-04-09T09:13:11.878Z,11.04
2023-04-09T09:15:38.251Z,10.67
2023-04-09T09:18:04.672Z,10.18
2023-04-09T09:20:31.067Z,10.15
2023-04-09T09:22:57.550Z,13.09
2023-04-09T09:25:23.927Z,13.54
2023-04-09T09:27:50.288Z,13.54
2023-04-09T09:30:16.666Z,13.39
2023-04-09T09:32:43.076Z,13.54
2023-04-09T09:35:09.450Z,13.67
2023-04-09T09:37:35.815Z,13.44
2023-04-09T09:40:02.244Z,14.35
2023-04-09T09:42:28.669Z,14.68
2023-04-09T09:44:55.038Z,15.44
2023-04-09T09:47:21.513Z,15.73
2023-04-09T09:49:47.863Z,15.01
2023-04-09T09:52:14.221Z,15.20
2023-04-09T09:54:40.634Z,15.88
2023-04-09T09:57:06.996Z,16.34
2023-04-09T09:59:33.407Z,15.81
2023-04-09T10:01:59.949Z,15.57
2023-04-09T10:04:26.420Z,15.12
2023-04-09T10:06:53.520Z,15.33
2023-04-09T10:09:20.027Z,14.64
2023-04-09T10:11:46.380Z,14.44
2023-04-09T10:14:12.801Z,14.99
2023-04-09T10:16:39.221Z,13.98
2023-04-09T10:19:05.585Z,14.21
2023-04-09T10:21:32.002Z,15.16
2023-04-09T10:23:58.365Z,15.34
2023-04-09T10:26:24.709Z,14.69
2023-04-09T10:28:51.309Z,14.25
2023-04-09T10:31:17.914Z,15.14
2023-04-09T10:33:44.262Z,14.64
2023-04-09T10:36:10.652Z,13.91
2023-04-09T10:38:37.014Z,13.60
2023-04-09T10:41:03.395Z,13.59
2023-04-09T10:43:29.768Z,16.37
2023-04-09T10:45:56.157Z,15.91
2023-04-09T10:48:22.533Z,15.73
2023-04-09T10:50:48.898Z,17.33
2023-04-09T10:53:15.264Z,17.82
2023-04-09T10:55:41.654Z,17.82
2023-04-09T10:58:10.427Z,19.74
2023-04-09T11:00:38.475Z,19.96
2023-04-09T11:03:04.978Z,17.55
2023-04-09T11:05:31.422Z,16.60
2023-04-09T11:07:59.105Z,14.08
2023-04-09T11:10:25.502Z,15.02
2023-04-09T11:12:51.983Z,13.98
2023-04-09T11:15:18.443Z,15.59
2023-04-09T11:17:45.008Z,16.03
2023-04-09T11:20:11.486Z,17.40
2023-04-09T11:22:37.929Z,17.58
2023-04-09T11:25:04.347Z,16.75
2023-04-09T11:27:30.745Z,16.40
2023-04-09T11:29:57.110Z,17.92
2023-04-09T11:32:23.500Z,18.06
2023-04-09T11:34:49.834Z,17.61
2023-04-09T11:37:16.254Z,16.85
2023-04-09T11:39:42.676Z,17.65
2023-04-09T11:42:09.056Z,17.07
2023-04-09T11:44:35.735Z,16.49
2023-04-09T11:47:02.228Z,16.77
2023-04-09T11:49:34.123Z,15.57
2023-04-09T11:52:00.519Z,14.53
2023-04-09T11:54:26.884Z,13.65
2023-04-09T11:56:53.225Z,12.94
2023-04-09T11:59:19.602Z,14.42
2023-04-09T12:01:46.042Z,14.32
2023-04-09T12:04:12.630Z,14.43
2023-04-09T12:06:39.264Z,16.27
2023-04-09T12:09:05.622Z,15.17
2023-04-09T12:11:32.062Z,13.27
2023-04-09T12:13:58.442Z,14.29
2023-04-09T12:16:24.932Z,15.45
2023-04-09T12:18:51.465Z,15.75
2023-04-09T12:21:19.306Z,15.30
2023-04-09T12:23:45.906Z,14.47
2023-04-09T12:26:12.275Z,14.63
2023-04-09T12:28:38.644Z,15.23
2023-04-09T12:31:05.075Z,16.04
2023-04-09T12:33:31.505Z,16.17
2023-04-09T12:35:57.928Z,16.14
2023-04-09T12:38:24.354Z,15.89
2023-04-09T12:40:50.774Z,16.13
2023-04-09T12:43:17.172Z,16.53
2023-04-09T12:45:43.532Z,15.85
2023-04-09T12:48:09.953Z,14.41
2023-04-09T12:50:36.309Z,13.89
2023-04-09T12:53:02.702Z,11.87
2023-04-09T12:55:29.062Z,12.98
2023-04-09T12:57:55.433Z,12.41
2023-04-09T13:00:21.865Z,11.95
2023-04-09T13:02:48.455Z,13.58
2023-04-09T13:05:14.958Z,13.71
2023-04-09T13:07:42.996Z,14.16
2023-04-09T13:10:09.750Z,14.51
2023-04-09T13:12:36.126Z,13.98
2023-04-09T13:15:02.571Z,13.65
2023-04-09T13:17:29.239Z,14.81
2023-04-09T13:19:55.613Z,14.68
2023-04-09T13:22:21.990Z,13.40
2023-04-09T13:24:48.396Z,12.55
2023-04-09T13:27:14.847Z,11.49
2023-04-09T13:29:41.208Z,13.18
2023-04-09T13:32:07.688Z,15.37
2023-04-09T13:34:34.351Z,13.27
2023-04-09T13:37:00.760Z,12.47
2023-04-09T13:39:27.125Z,12.24
2023-04-09T13:41:56.523Z,12.80
2023-04-09T13:44:23.037Z,12.61
2023-04-09T13:46:49.392Z,13.17
2023-04-09T13:49:15.765Z,13.17
2023-04-09T13:51:42.246Z,13.30
2023-04-09T13:54:11.676Z,10.94
2023-04-09T13:56:38.112Z,10.40
2023-04-09T13:59:04.487Z,10.95
2023-04-09T14:01:31.011Z,10.30
2023-04-09T14:03:57.775Z,9.62
2023-04-09T14:06:24.482Z,11.20
2023-04-09T14:08:51.005Z,11.41
2023-04-09T14:11:17.569Z,12.54
2023-04-09T14:13:44.010Z,12.57
2023-04-09T14:16:10.451Z,12.06
2023-04-09T14:18:36.848Z,12.30
2023-04-09T14:21:03.274Z,13.21
2023-04-09T14:23:29.703Z,13.73
2023-04-09T14:25:56.138Z,12.83
2023-04-09T14:28:22.518Z,14.28
2023-04-09T14:30:51.619Z,15.61
2023-04-09T14:33:18.018Z,14.03
2023-04-09T14:35:44.442Z,12.38
2023-04-09T14:38:10.875Z,13.74
2023-04-09T14:40:37.247Z,13.58
2023-04-09T14:43:03.613Z,10.53
2023-04-09T14:45:30.839Z,10.13
2023-04-09T14:47:57.407Z,8.10
2023-04-09T14:50:23.829Z,7.59
2023-04-09T14:52:50.184Z,7.72
2023-04-09T14:55:16.566Z,7.11
2023-04-09T14:57:42.905Z,6.41
2023-04-09T15:00:11.690Z,5.95
2023-04-09T15:02:38.300Z,5.45
2023-04-09T15:05:04.857Z,6.27
2023-04-09T15:07:31.240Z,10.61
2023-04-09T15:09:57.625Z,8.53
2023-04-09T15:12:24.008Z,9.03
2023-04-09T15:14:50.363Z,10.04
2023-04-09T15:17:16.765Z,10.14
2023-04-09T15:19:43.132Z,10.52
2023-04-09T15:22:09.483Z,10.49
2023-04-09T15:24:35.829Z,11.50
2023-04-09T15:27:04.355Z,11.82
2023-04-09T15:29:30.746Z,10.77
2023-04-09T15:31:57.461Z,11.50
2023-04-09T15:34:23.959Z,12.27
2023-04-09T15:36:50.355Z,12.02
2023-04-09T15:39:17.933Z,11.07
2023-04-09T15:41:44.270Z,11.65
2023-04-09T15:44:10.717Z,13.00
2023-04-09T15:46:37.084Z,12.49
2023-04-09T15:49:03.452Z,13.21
2023-04-09T15:51:29.846Z,12.19
2023-04-09T15:53:56.266Z,13.49
2023-04-09T15:56:22.662Z,12.09
2023-04-09T15:58:49.070Z,12.26
2023-04-09T16:01:15.495Z,13.14
2023-04-09T16:03:41.859Z,13.15
2023-04-09T16:06:08.295Z,13.02
2023-04-09T16:08:34.781Z,12.72
2023-04-09T16:11:01.155Z,12.23
2023-04-09T16:13:27.587Z,11.50
2023-04-09T16:15:54.001Z,9.53
2023-04-09T16:18:20.471Z,9.13
2023-04-09T16:20:46.859Z,9.31
2023-04-09T16:23:13.223Z,9.32
2023-04-09T16:25:39.589Z,9.58
2023-04-09T16:28:05.971Z,9.71
2023-04-09T16:30:32.328Z,9.24
2023-04-09T16:32:58.774Z,9.28
2023-04-09T16:35:25.150Z,9.07
2023-04-09T16:37:51.519Z,8.86
2023-04-09T16:40:17.942Z,9.01
2023-04-09T16:42:44.312Z,9.31
2023-04-09T16:45:10.698Z,8.88
2023-04-09T16:47:37.176Z,9.31
2023-04-09T16:50:03.577Z,9.08
2023-04-09T16:52:29.933Z,9.04
2023-04-09T16:54:56.243Z,8.64
2023-04-09T16:57:22.716Z,9.11
2023-04-09T16:59:49.091Z,9.30
2023-04-09T17:02:15.478Z,8.74
2023-04-09T17:04:41.888Z,8.82
2023-04-09T17:07:08.289Z,8.68
2023-04-09T17:09:34.675Z,8.81
2023-04-09T17:12:01.315Z,9.11
2023-04-09T17:14:27.684Z,9.59
2023-04-09T17:16:54.166Z,9.61
2023-04-09T17:19:20.587Z,9.19
2023-04-09T17:21:47.000Z,9.07
2023-04-09T17:24:13.423Z,8.87
2023-04-09T17:26:39.794Z,8.87
2023-04-09T17:29:06.196Z,8.68
2023-04-09T17:31:32.624Z,8.71
2023-04-09T17:33:59.105Z,10.85
2023-04-09T17:36:25.546Z,10.05
2023-04-09T17:38:52.237Z,9.05
2023-04-09T17:41:18.930Z,9.90
2023-04-09T17:43:45.306Z,9.10
2023-04-09T17:46:11.884Z,8.86
2023-04-09T17:48:38.327Z,9.39
2023-04-09T17:51:04.733Z,9.15
2023-04-09T17:53:31.133Z,8.99
2023-04-09T17:55:57.705Z,8.06
2023-04-09T17:58:24.428Z,8.39
2023-04-09T18:00:50.754Z,8.32
2023-04-09T18:03:17.304Z,8.61
2023-04-09T18:05:43.778Z,8.68
2023-04-09T18:08:11.207Z,8.44
2023-04-09T18:10:37.541Z,8.22
2023-04-09T18:13:06.951Z,7.61
2023-04-09T18:15:33.403Z,6.86
2023-04-09T18:17:59.897Z,7.15
2023-04-09T18:20:26.311Z,6.16
2023-04-09T18:22:52.672Z,6.65
2023-04-09T18:25:19.231Z,5.31
2023-04-09T18:27:45.597Z,4.60
2023-04-09T18:30:12.002Z,3.95
2023-04-09T18:32:38.409Z,5.70
2023-04-09T18:35:04.832Z,6.89
2023-04-09T18:37:31.197Z,4.90
2023-04-09T18:39:57.596Z,4.60
2023-04-09T18:42:23.953Z,5.09
2023-04-09T18:44:50.380Z,5.36
2023-04-09T18:47:16.737Z,5.06
2023-04-09T18:49:43.102Z,4.47
2023-04-09T18:52:09.486Z,4.76
2023-04-09T18:54:35.880Z,4.46
2023-04-09T18:57:02.294Z,4.52
2023-04-09T18:59:28.659Z,4.98
2023-04-09T19:01:55.224Z,4.73
2023-04-09T19:04:21.691Z,4.37
2023-04-09T19:06:48.108Z,4.50
2023-04-09T19:09:14.490Z,4.27
2023-04-09T19:11:40.892Z,4.07
2023-04-09T19:14:07.265Z,4.12
2023-04-09T19:16:33.697Z,5.57
2023-04-09T19:19:00.093Z,5.09
2023-04-09T19:21:26.485Z,4.91
2023-04-09T19:23:52.891Z,4.83
2023-04-09T19:26:19.271Z,5.58
2023-04-09T19:28:45.656Z,4.94
2023-04-09T19:31:12.059Z,5.19
2023-04-09T19:33:38.409Z,5.26
2023-04-09T19:36:04.750Z,4.19
2023-04-09T19:38:31.130Z,3.79
2023-04-09T19:40:57.590Z,4.35
2023-04-09T19:43:23.962Z,3.98
2023-04-09T19:45:50.319Z,4.16
2023-04-09T19:48:16.673Z,4.57
2023-04-09T19:50:43.097Z,5.12
2023-04-09T19:53:10.771Z,5.15
2023-04-09T19:55:37.275Z,5.14
2023-04-09T19:58:03.700Z,5.22
2023-04-09T20:00:30.104Z,5.45
2023-04-09T20:02:59.698Z,5.12
2023-04-09T20:05:26.362Z,4.33
2023-04-09T20:07:52.897Z,4.38
2023-04-09T20:10:19.348Z,6.68
2023-04-09T20:12:45.700Z,4.43
2023-04-09T20:15:12.134Z,4.70
2023-04-09T20:17:38.611Z,5.40
2023-04-09T20:20:05.007Z,4.77
2023-04-09T20:22:31.373Z,5.87
2023-04-09T20:24:57.728Z,4.91
2023-04-09T20:27:24.087Z,4.04
2023-04-09T20:29:50.424Z,4.39
2023-04-09T20:32:17.042Z,4.49
2023-04-09T20:34:43.599Z,4.40
2023-04-09T20:37:09.970Z,4.21
2023-04-09T20:39:36.355Z,4.33
2023-04-09T20:42:04.903Z,4.10
2023-04-09T20:44:31.278Z,4.25
2023-04-09T20:46:57.657Z,4.52
2023-04-09T20:49:23.998Z,4.65
2023-04-09T20:51:50.374Z,4.41
2023-04-09T20:54:16.732Z,4.67
2023-04-09T20:56:43.157Z,4.78
2023-04-09T20:59:09.525Z,5.47
2023-04-09T21:01:36.093Z,6.38
2023-04-09T21:04:02.709Z,11.00
2023-04-09T21:06:29.194Z,11.04
2023-04-09T21:08:55.751Z,6.98
2023-04-09T21:11:22.759Z,6.11
2023-04-09T21:13:54.720Z,5.69
2023-04-09T21:16:21.835Z,6.09
2023-04-09T21:18:48.263Z,4.86
2023-04-09T21:21:14.667Z,4.75
2023-04-09T21:23:41.038Z,4.10
2023-04-09T21:26:07.407Z,5.12
2023-04-09T21:28:33.777Z,5.08
2023-04-09T21:31:00.228Z,4.34
2023-04-09T21:33:28.632Z,4.27
2023-04-09T21:35:56.312Z,4.12
2023-04-09T21:38:22.754Z,4.30
2023-04-09T21:40:49.118Z,3.83
2023-04-09T21:43:15.493Z,3.59
2023-04-09T21:45:41.993Z,3.44
2023-04-09T21:48:08.423Z,3.41
2023-04-09T21:50:34.775Z,3.59
2023-04-09T21:53:01.101Z,3.83
2023-04-09T21:55:27.469Z,4.07
2023-04-09T21:57:53.878Z,5.22
2023-04-09T22:00:20.360Z,5.18
2023-04-09T22:02:46.887Z,5.11
2023-04-09T22:05:13.373Z,4.65
2023-04-09T22:07:39.829Z,4.41
2023-04-09T22:10:06.198Z,3.78
2023-04-09T22:12:32.589Z,3.70
2023-04-09T22:14:59.229Z,3.47
2023-04-09T22:17:25.689Z,3.73
2023-04-09T22:19:52.101Z,3.55
2023-04-09T22:22:18.473Z,3.74
2023-04-09T22:24:44.868Z,4.35
2023-04-09T22:27:11.208Z,4.83
2023-04-09T22:29:39.688Z,6.94
2023-04-09T22:32:06.053Z,4.35
2023-04-09T22:34:32.404Z,3.98
2023-04-09T22:36:58.842Z,4.43
2023-04-09T22:39:25.210Z,4.56
2023-04-09T22:41:51.568Z,4.08
2023-04-09T22:44:17.992Z,3.61
2023-04-09T22:46:44.366Z,4.04
2023-04-09T22:49:10.953Z,3.75
2023-04-09T22:51:38.547Z,4.41
2023-04-09T22:54:06.595Z,4.71
2023-04-09T22:56:32.942Z,4.00
2023-04-09T22:58:59.322Z,4.08
2023-04-09T23:01:25.777Z,3.78
2023-04-09T23:03:52.175Z,3.60
2023-04-09T23:06:18.575Z,5.39
2023-04-09T23:08:44.906Z,6.89
2023-04-09T23:11:11.270Z,10.54
2023-04-09T23:13:37.636Z,9.03
2023-04-09T23:16:04.027Z,5.40
2023-04-09T23:18:30.393Z,3.77
2023-04-09T23:20:56.777Z,3.55
2023-04-09T23:23:23.133Z,3.23
2023-04-09T23:25:49.532Z,3.34
2023-04-09T23:28:15.924Z,3.38
2023-04-09T23:30:42.356Z,3.41
2023-04-09T23:33:08.831Z,3.51
2023-04-09T23:35:35.307Z,3.71
2023-04-09T23:38:01.780Z,3.66
2023-04-09T23:40:28.149Z,3.68
2023-04-09T23:42:54.538Z,3.68
2023-04-09T23:45:20.868Z,3.72
2023-04-09T23:47:47.237Z,3.52
2023-04-09T23:50:13.701Z,3.60
2023-04-09T23:52:40.057Z,3.68
2023-04-09T23:55:06.418Z,3.47
2023-04-09T23:57:32.766Z,3.63
2023-04-09T23:59:59.100Z,3.47
